createdAt,value
2023-03-05T00:02:06.926Z,93.10
2023-03-05T00:04:33.864Z,93.00
2023-03-05T00:07:00.521Z,93.00
2023-03-05T00:09:27.293Z,93.10
2023-03-05T00:11:53.959Z,93.20
2023-03-05T00:14:20.563Z,93.20
2023-03-05T00:16:47.932Z,93.20
2023-03-05T00:19:14.665Z,93.30
2023-03-05T00:21:42.042Z,93.30
2023-03-05T00:24:13.414Z,93.50
2023-03-05T00:26:40.930Z,93.50
2023-03-05T00:29:09.447Z,93.50
2023-03-05T00:31:37.140Z,93.50
2023-03-05T00:34:06.928Z,93.90
2023-03-05T00:36:34.213Z,93.70
2023-03-05T00:39:01.625Z,93.70
2023-03-05T00:41:28.388Z,93.70
2023-03-05T00:43:55.157Z,93.80
2023-03-05T00:46:22.950Z,93.80
2023-03-05T00:48:50.096Z,93.90
2023-03-05T00:51:16.958Z,93.90
2023-03-05T00:53:43.650Z,94.00
2023-03-05T00:56:10.398Z,94.00
2023-03-05T00:58:37.331Z,94.10
2023-03-05T01:01:04.279Z,94.10
2023-03-05T01:03:32.385Z,94.20
2023-03-05T01:05:59.553Z,94.20
2023-03-05T01:08:26.599Z,94.20
2023-03-05T01:10:53.359Z,94.20
2023-03-05T01:13:20.057Z,94.30
2023-03-05T01:15:48.591Z,94.30
2023-03-05T01:18:15.527Z,94.30
2023-03-05T01:20:42.374Z,94.30
2023-03-05T01:23:09.534Z,94.40
2023-03-05T01:25:36.998Z,94.40
2023-03-05T01:28:04.257Z,94.40
2023-03-05T01:30:32.687Z,94.40
2023-03-05T01:32:59.462Z,94.40
2023-03-05T01:35:26.785Z,94.80
2023-03-05T01:37:54.089Z,94.50
2023-03-05T01:40:29.685Z,94.50
2023-03-05T01:43:13.830Z,95.10
2023-03-05T01:46:30.019Z,94.60
2023-03-05T01:49:10.188Z,94.80
2023-03-05T01:51:59.939Z,94.70
2023-03-05T01:54:35.153Z,94.80
2023-03-05T01:57:09.394Z,94.80
2023-03-05T01:59:39.085Z,94.80
2023-03-05T02:02:07.928Z,94.80
2023-03-05T02:04:58.626Z,94.80
2023-03-05T02:07:26.129Z,94.90
2023-03-05T02:09:52.955Z,94.70
2023-03-05T02:12:19.954Z,94.70
2023-03-05T02:14:49.479Z,94.70
2023-03-05T02:17:16.644Z,94.80
2023-03-05T02:20:08.790Z,94.80
2023-03-05T02:22:35.488Z,95.10
2023-03-05T02:25:02.629Z,94.90
2023-03-05T02:27:35.087Z,94.90
2023-03-05T02:30:02.986Z,95.00
2023-03-05T02:32:29.795Z,95.00
2023-03-05T02:34:56.712Z,95.00
2023-03-05T02:37:23.486Z,95.10
2023-03-05T02:39:51.651Z,95.10
2023-03-05T02:42:18.564Z,95.10
2023-03-05T02:44:45.375Z,95.10
2023-03-05T02:47:12.104Z,95.20
2023-03-05T02:49:38.993Z,95.20
2023-03-05T02:52:06.055Z,95.20
2023-03-05T02:54:32.762Z,95.20
2023-03-05T02:56:59.384Z,95.20
2023-03-05T02:59:27.069Z,95.30
2023-03-05T03:01:54.054Z,95.30
2023-03-05T03:04:20.788Z,95.40
2023-03-05T03:06:47.468Z,95.40
2023-03-05T03:09:14.063Z,95.50
2023-03-05T03:11:40.726Z,95.50
2023-03-05T03:14:10.213Z,95.50
2023-03-05T03:16:36.874Z,95.60
2023-03-05T03:19:03.712Z,95.60
2023-03-05T03:21:30.443Z,95.70
2023-03-05T03:23:57.166Z,95.70
2023-03-05T03:26:23.967Z,95.70
2023-03-05T03:28:50.663Z,95.80
2023-03-05T03:31:17.748Z,95.80
2023-03-05T03:33:44.643Z,95.80
2023-03-05T03:36:11.923Z,95.90
2023-03-05T03:38:38.660Z,95.90
2023-03-05T03:41:09.073Z,95.90
2023-03-05T03:43:36.483Z,96.10
2023-03-05T03:46:09.449Z,96.00
2023-03-05T03:48:36.255Z,96.20
2023-03-05T03:51:07.572Z,96.00
2023-03-05T03:53:34.350Z,96.20
2023-03-05T03:56:01.052Z,96.00
2023-03-05T03:58:27.664Z,96.10
2023-03-05T04:00:54.270Z,96.10
2023-03-05T04:03:20.920Z,96.10
2023-03-05T04:05:47.542Z,96.10
2023-03-05T04:08:14.174Z,96.10
2023-03-05T04:10:41.041Z,96.10
2023-03-05T04:13:07.874Z,96.10
2023-03-05T04:15:34.929Z,96.10
2023-03-05T04:18:01.626Z,96.10
2023-03-05T04:20:28.257Z,96.10
2023-03-05T04:22:54.904Z,96.10
2023-03-05T04:25:21.623Z,96.00
2023-03-05T04:27:50.937Z,96.00
2023-03-05T04:30:17.721Z,96.00
2023-03-05T04:32:44.345Z,96.00
2023-03-05T04:35:11.094Z,96.00
2023-03-05T04:37:37.950Z,96.10
2023-03-05T04:40:05.196Z,96.00
2023-03-05T04:42:31.997Z,96.10
2023-03-05T04:44:58.667Z,96.00
2023-03-05T04:47:25.537Z,96.00
2023-03-05T04:49:52.313Z,96.00
2023-03-05T04:52:18.935Z,96.00
2023-03-05T04:54:45.908Z,96.00
2023-03-05T04:57:12.600Z,96.00
2023-03-05T04:59:39.255Z,96.00
2023-03-05T05:02:06.086Z,96.00
2023-03-05T05:04:33.815Z,96.00
2023-03-05T05:07:00.464Z,96.00
2023-03-05T05:09:27.132Z,96.00
2023-03-05T05:11:54.341Z,96.10
2023-03-05T05:14:21.450Z,96.10
2023-03-05T05:16:48.098Z,96.10
2023-03-05T05:19:14.944Z,96.50
2023-03-05T05:21:41.783Z,96.10
2023-03-05T05:24:08.766Z,96.20
2023-03-05T05:26:35.594Z,96.20
2023-03-05T05:29:02.499Z,96.20
2023-03-05T05:31:29.163Z,96.20
2023-03-05T05:33:56.025Z,96.30
2023-03-05T05:36:22.872Z,96.30
2023-03-05T05:38:49.964Z,96.40
2023-03-05T05:41:18.704Z,96.40
2023-03-05T05:43:46.004Z,96.40
2023-03-05T05:46:15.937Z,96.40
2023-03-05T05:48:43.341Z,96.40
2023-03-05T05:51:15.816Z,96.40
2023-03-05T05:53:43.948Z,96.40
2023-03-05T05:56:12.206Z,96.40
2023-03-05T05:58:40.750Z,96.40
2023-03-05T06:01:18.200Z,96.40
2023-03-05T06:03:44.950Z,96.50
2023-03-05T06:06:13.333Z,96.30
2023-03-05T06:08:40.555Z,96.40
2023-03-05T06:11:07.706Z,96.40
2023-03-05T06:13:34.876Z,96.40
2023-03-05T06:16:04.450Z,96.40
2023-03-05T06:18:31.404Z,96.50
2023-03-05T06:21:06.609Z,96.50
2023-03-05T06:23:33.603Z,96.60
2023-03-05T06:26:02.978Z,96.60
2023-03-05T06:28:30.587Z,96.60
2023-03-05T06:31:08.519Z,96.70
2023-03-05T06:33:36.227Z,96.80
2023-03-05T06:36:08.558Z,96.70
2023-03-05T06:38:35.881Z,96.70
2023-03-05T06:41:09.262Z,96.60
2023-03-05T06:43:41.420Z,96.60
2023-03-05T06:46:09.486Z,96.50
2023-03-05T06:48:36.209Z,96.40
2023-03-05T06:51:03.172Z,96.30
2023-03-05T06:53:29.962Z,96.50
2023-03-05T06:55:56.720Z,96.60
2023-03-05T06:58:23.747Z,96.80
2023-03-05T07:00:50.573Z,97.00
2023-03-05T07:03:17.296Z,97.20
2023-03-05T07:05:44.483Z,97.40
2023-03-05T07:08:11.214Z,97.60
2023-03-05T07:10:40.202Z,97.70
2023-03-05T07:13:08.104Z,97.90
2023-03-05T07:15:37.835Z,98.00
2023-03-05T07:18:04.836Z,98.10
2023-03-05T07:20:33.756Z,98.30
2023-03-05T07:23:00.397Z,98.50
2023-03-05T07:25:27.108Z,98.60
2023-03-05T07:27:53.743Z,98.70
2023-03-05T07:30:20.702Z,98.80
2023-03-05T07:32:47.618Z,98.90
2023-03-05T07:35:14.632Z,98.90
2023-03-05T07:37:41.292Z,99.00
2023-03-05T07:40:10.252Z,99.00
2023-03-05T07:42:36.988Z,99.00
2023-03-05T07:45:13.143Z,99.10
2023-03-05T07:47:39.782Z,99.40
2023-03-05T07:50:06.991Z,99.60
2023-03-05T07:52:33.673Z,99.70
2023-03-05T07:55:00.355Z,99.60
2023-03-05T07:57:27.093Z,99.60
2023-03-05T07:59:54.085Z,99.60
2023-03-05T08:02:21.498Z,99.50
2023-03-05T08:04:48.240Z,99.40
2023-03-05T08:07:16.260Z,99.40
2023-03-05T08:09:43.051Z,99.30
2023-03-05T08:12:10.342Z,99.40
2023-03-05T08:14:37.838Z,99.40
2023-03-05T08:17:05.701Z,99.50
2023-03-05T08:19:32.984Z,99.50
2023-03-05T08:21:59.872Z,99.50
2023-03-05T08:24:29.600Z,99.60
2023-03-05T08:26:57.704Z,99.60
2023-03-05T08:29:27.247Z,99.50
2023-03-05T08:31:53.935Z,99.60
2023-03-05T08:34:21.457Z,99.60
2023-03-05T08:36:48.997Z,99.60
2023-03-05T08:39:15.911Z,99.70
2023-03-05T08:41:42.756Z,99.80
2023-03-05T08:44:09.727Z,99.80
2023-03-05T08:46:38.780Z,99.70
2023-03-05T08:49:07.226Z,99.60
2023-03-05T08:51:35.791Z,99.70
2023-03-05T08:54:06.759Z,99.70
2023-03-05T08:56:34.903Z,99.80
2023-03-05T08:59:02.953Z,99.80
2023-03-05T09:01:31.749Z,99.90
2023-03-05T09:03:59.761Z,99.80
2023-03-05T09:06:27.428Z,99.80
2023-03-05T09:08:54.953Z,99.80
2023-03-05T09:11:21.877Z,99.90
2023-03-05T09:13:48.689Z,99.90
2023-03-05T09:16:17.770Z,99.90
2023-03-05T09:18:44.929Z,99.90
2023-03-05T09:21:14.321Z,99.90
2023-03-05T09:23:41.418Z,99.80
2023-03-05T09:26:10.121Z,99.80
2023-03-05T09:28:36.765Z,99.70
2023-03-05T09:31:08.039Z,99.60
2023-03-05T09:33:35.755Z,99.50
2023-03-05T09:36:03.496Z,99.70
2023-03-05T09:38:30.164Z,99.80
2023-03-05T09:41:07.788Z,99.90
2023-03-05T09:43:47.002Z,99.70
2023-03-05T09:46:32.759Z,99.80
2023-03-05T09:49:14.135Z,99.40
2023-03-05T09:51:42.911Z,99.60
2023-03-05T09:54:23.124Z,99.60
2023-03-05T09:56:59.054Z,99.40
2023-03-05T09:59:31.775Z,99.30
2023-03-05T10:02:17.005Z,99.50
2023-03-05T10:04:59.747Z,99.00
2023-03-05T10:07:34.288Z,98.90
2023-03-05T10:10:02.778Z,99.20
2023-03-05T10:12:42.684Z,99.40
2023-03-05T10:15:14.415Z,99.10
2023-03-05T10:18:09.421Z,99.60
2023-03-05T10:20:42.555Z,99.40
2023-03-05T10:23:09.244Z,99.90
2023-03-05T10:26:13.981Z,99.90
2023-03-05T10:29:03.422Z,99.80
2023-03-05T10:31:44.528Z,99.90
2023-03-05T10:34:55.375Z,99.90
2023-03-05T10:37:57.196Z,99.10
2023-03-05T10:40:32.454Z,98.70
2023-03-05T10:42:59.385Z,99.30
2023-03-05T10:45:38.921Z,99.50
2023-03-05T10:48:27.335Z,98.30
2023-03-05T10:51:00.630Z,98.30
2023-03-05T10:53:33.839Z,98.60
2023-03-05T10:56:05.525Z,98.90
2023-03-05T10:58:32.807Z,98.40
2023-03-05T11:01:10.144Z,98.80
2023-03-05T11:03:53.583Z,98.60
2023-03-05T11:06:27.500Z,97.90
2023-03-05T11:08:54.172Z,97.30
2023-03-05T11:11:22.580Z,98.10
2023-03-05T11:14:02.228Z,97.70
2023-03-05T11:16:35.626Z,96.90
2023-03-05T11:19:24.391Z,96.60
2023-03-05T11:22:15.109Z,96.30
2023-03-05T11:24:42.720Z,95.60
2023-03-05T11:27:31.371Z,96.70
2023-03-05T11:29:59.272Z,95.30
2023-03-05T11:32:28.490Z,96.20
2023-03-05T11:34:56.187Z,96.00
2023-03-05T11:37:25.891Z,96.50
2023-03-05T11:40:10.672Z,95.90
2023-03-05T11:42:40.119Z,94.50
2023-03-05T11:45:14.291Z,95.40
2023-03-05T11:47:53.410Z,95.60
2023-03-05T11:50:23.606Z,93.70
2023-03-05T11:52:58.159Z,94.60
2023-03-05T11:55:27.844Z,93.20
2023-03-05T11:58:21.982Z,93.80
2023-03-05T12:00:48.639Z,92.60
2023-03-05T12:03:18.786Z,93.90
2023-03-05T12:05:50.032Z,92.90
2023-03-05T12:08:25.472Z,92.40
2023-03-05T12:10:53.024Z,92.30
2023-03-05T12:13:34.427Z,93.10
2023-03-05T12:16:39.355Z,92.00
2023-03-05T12:19:18.536Z,90.60
2023-03-05T12:21:50.118Z,91.20
2023-03-05T12:24:28.138Z,91.20
2023-03-05T12:27:04.275Z,90.20
2023-03-05T12:29:51.772Z,90.00
2023-03-05T12:32:33.932Z,89.30
2023-03-05T12:35:26.463Z,89.80
2023-03-05T12:37:53.088Z,88.90
2023-03-05T12:40:28.728Z,90.90
2023-03-05T12:43:04.254Z,90.00
2023-03-05T12:45:33.748Z,89.00
2023-03-05T12:48:00.349Z,89.30
2023-03-05T12:50:27.124Z,90.00
2023-03-05T12:53:07.360Z,89.30
2023-03-05T12:55:51.144Z,87.70
2023-03-05T12:58:30.732Z,85.70
2023-03-05T13:01:15.640Z,86.10
2023-03-05T13:03:54.350Z,86.60
2023-03-05T13:06:34.100Z,85.40
2023-03-05T13:09:24.985Z,83.70
2023-03-05T13:11:53.763Z,82.90
2023-03-05T13:14:23.465Z,86.10
2023-03-05T13:16:50.559Z,85.10
2023-03-05T13:19:17.970Z,85.30
2023-03-05T13:21:44.872Z,85.00
2023-03-05T13:24:19.781Z,84.70
2023-03-05T13:26:46.490Z,83.20
2023-03-05T13:29:17.070Z,84.00
2023-03-05T13:31:48.696Z,83.90
2023-03-05T13:34:24.560Z,82.60
2023-03-05T13:37:14.916Z,82.30
2023-03-05T13:39:47.907Z,81.60
2023-03-05T13:42:34.481Z,82.30
2023-03-05T13:45:04.767Z,80.40
2023-03-05T13:47:36.502Z,81.70
2023-03-05T13:50:08.677Z,81.40
2023-03-05T13:52:39.137Z,80.40
2023-03-05T13:55:16.863Z,80.30
2023-03-05T13:57:52.968Z,79.90
2023-03-05T14:00:36.595Z,79.80
2023-03-05T14:03:11.283Z,79.60
2023-03-05T14:05:44.452Z,79.50
2023-03-05T14:08:23.710Z,79.20
2023-03-05T14:10:51.371Z,78.90
2023-03-05T14:13:28.941Z,80.00
2023-03-05T14:16:10.928Z,79.50
2023-03-05T14:18:38.848Z,78.20
2023-03-05T14:21:08.914Z,79.80
2023-03-05T14:23:37.676Z,79.20
2023-03-05T14:26:28.625Z,79.00
2023-03-05T14:28:58.830Z,78.20
2023-03-05T14:31:26.986Z,79.60
2023-03-05T14:33:54.989Z,79.50
2023-03-05T14:36:26.805Z,79.50
2023-03-05T14:38:54.504Z,78.70
2023-03-05T14:41:38.841Z,79.40
2023-03-05T14:44:17.449Z,79.30
2023-03-05T14:46:48.945Z,78.20
2023-03-05T14:49:16.268Z,78.80
2023-03-05T14:51:45.387Z,79.30
2023-03-05T14:54:23.911Z,79.10
2023-03-05T14:56:51.133Z,78.30
2023-03-05T14:59:18.482Z,78.90
2023-03-05T15:01:45.180Z,78.40
2023-03-05T15:04:11.895Z,78.60
2023-03-05T15:06:41.175Z,78.30
2023-03-05T15:09:08.158Z,78.00
2023-03-05T15:11:35.090Z,78.10
2023-03-05T15:14:01.780Z,78.20
2023-03-05T15:16:28.425Z,78.20
2023-03-05T15:18:55.040Z,77.90
2023-03-05T15:21:21.646Z,78.00
2023-03-05T15:23:48.287Z,77.70
2023-03-05T15:26:15.800Z,77.50
2023-03-05T15:28:43.219Z,77.20
2023-03-05T15:31:10.939Z,77.40
2023-03-05T15:33:37.654Z,77.60
2023-03-05T15:36:04.844Z,77.80
2023-03-05T15:38:31.483Z,77.90
2023-03-05T15:41:00.590Z,78.10
2023-03-05T15:43:28.188Z,78.00
2023-03-05T15:45:54.893Z,78.00
2023-03-05T15:48:21.598Z,78.10
2023-03-05T15:50:48.250Z,78.20
2023-03-05T15:53:18.102Z,78.40
2023-03-05T15:55:45.863Z,78.40
2023-03-05T15:58:15.899Z,78.30
2023-03-05T16:00:42.964Z,78.10
2023-03-05T16:03:09.709Z,78.30
2023-03-05T16:05:37.319Z,78.40
2023-03-05T16:08:04.652Z,78.30
2023-03-05T16:10:31.776Z,78.40
2023-03-05T16:13:12.247Z,78.50
2023-03-05T16:15:40.997Z,78.30
2023-03-05T16:18:15.406Z,79.00
2023-03-05T16:20:42.178Z,78.90
2023-03-05T16:23:08.950Z,79.30
2023-03-05T16:25:36.667Z,79.40
2023-03-05T16:28:03.644Z,79.70
2023-03-05T16:30:30.534Z,79.90
2023-03-05T16:32:57.298Z,80.10
2023-03-05T16:35:24.029Z,80.20
2023-03-05T16:37:50.919Z,80.50
2023-03-05T16:40:17.667Z,80.70
2023-03-05T16:42:44.563Z,80.70
2023-03-05T16:45:12.237Z,80.80
2023-03-05T16:47:39.712Z,80.80
2023-03-05T16:50:08.628Z,80.80
2023-03-05T16:52:35.363Z,80.80
2023-03-05T16:55:02.072Z,80.70
2023-03-05T16:57:28.964Z,80.70
2023-03-05T16:59:56.733Z,80.70
2023-03-05T17:02:24.059Z,80.70
2023-03-05T17:04:50.811Z,80.90
2023-03-05T17:07:18.143Z,81.10
2023-03-05T17:09:45.751Z,81.10
2023-03-05T17:12:12.549Z,81.20
2023-03-05T17:14:39.865Z,81.20
2023-03-05T17:17:06.713Z,81.30
2023-03-05T17:19:33.425Z,81.30
2023-03-05T17:22:00.191Z,81.30
2023-03-05T17:24:26.880Z,81.40
2023-03-05T17:26:53.556Z,81.60
2023-03-05T17:29:21.326Z,81.70
2023-03-05T17:31:50.529Z,81.80
2023-03-05T17:34:18.439Z,81.80
2023-03-05T17:36:47.149Z,82.10
2023-03-05T17:39:13.777Z,82.20
2023-03-05T17:41:40.529Z,82.30
2023-03-05T17:44:07.327Z,82.30
2023-03-05T17:46:34.011Z,82.50
2023-03-05T17:49:00.719Z,82.70
2023-03-05T17:51:27.599Z,82.80
2023-03-05T17:53:54.529Z,82.70
2023-03-05T17:56:22.075Z,82.90
2023-03-05T17:58:49.830Z,83.00
2023-03-05T18:01:28.902Z,83.10
2023-03-05T18:03:55.970Z,83.00
2023-03-05T18:06:23.043Z,83.40
2023-03-05T18:08:49.831Z,83.60
2023-03-05T18:11:16.999Z,83.70
2023-03-05T18:13:43.891Z,83.80
2023-03-05T18:16:12.188Z,84.00
2023-03-05T18:18:38.848Z,84.20
2023-03-05T18:21:05.699Z,84.30
2023-03-05T18:23:32.372Z,84.30
2023-03-05T18:25:59.009Z,84.40
2023-03-05T18:28:25.918Z,84.40
2023-03-05T18:30:52.708Z,84.40
2023-03-05T18:33:22.679Z,84.40
2023-03-05T18:35:52.051Z,84.30
2023-03-05T18:38:20.725Z,84.40
2023-03-05T18:40:47.884Z,84.40
2023-03-05T18:43:14.574Z,84.50
2023-03-05T18:45:41.258Z,84.50
2023-03-05T18:48:07.890Z,84.40
2023-03-05T18:50:34.602Z,84.50
2023-03-05T18:53:01.314Z,84.60
2023-03-05T18:55:30.078Z,84.60
2023-03-05T18:57:57.602Z,84.50
2023-03-05T19:00:27.267Z,84.60
2023-03-05T19:02:54.899Z,84.50
2023-03-05T19:05:22.013Z,84.70
2023-03-05T19:07:49.074Z,84.80
2023-03-05T19:10:17.500Z,84.80
2023-03-05T19:12:57.769Z,84.80
2023-03-05T19:15:24.503Z,84.80
2023-03-05T19:17:51.442Z,84.90
2023-03-05T19:20:18.866Z,85.20
2023-03-05T19:22:45.555Z,84.90
2023-03-05T19:25:12.488Z,85.00
2023-03-05T19:27:39.462Z,85.10
2023-03-05T19:30:07.293Z,85.30
2023-03-05T19:32:34.253Z,85.20
2023-03-05T19:35:01.314Z,85.20
2023-03-05T19:37:28.136Z,85.20
2023-03-05T19:39:54.846Z,85.20
2023-03-05T19:42:21.536Z,85.10
2023-03-05T19:44:48.375Z,85.10
2023-03-05T19:47:15.048Z,85.00
2023-03-05T19:49:41.881Z,84.90
2023-03-05T19:52:08.636Z,84.90
2023-03-05T19:54:35.459Z,85.10
2023-03-05T19:57:02.337Z,85.00
2023-03-05T19:59:29.065Z,85.00
2023-03-05T20:01:57.239Z,85.10
2023-03-05T20:04:24.891Z,85.00
2023-03-05T20:06:51.916Z,84.90
2023-03-05T20:09:18.744Z,85.00
2023-03-05T20:11:46.412Z,85.00
2023-03-05T20:14:14.456Z,85.00
2023-03-05T20:16:43.053Z,85.00
2023-03-05T20:19:16.150Z,85.00
2023-03-05T20:21:42.942Z,84.80
2023-03-05T20:24:13.605Z,85.00
2023-03-05T20:26:41.849Z,84.90
2023-03-05T20:29:08.795Z,85.10
2023-03-05T20:31:37.114Z,85.20
2023-03-05T20:34:10.108Z,85.10
2023-03-05T20:36:37.263Z,85.00
2023-03-05T20:39:05.093Z,85.30
2023-03-05T20:41:33.175Z,85.20
2023-03-05T20:43:59.924Z,85.30
2023-03-05T20:46:32.780Z,85.40
2023-03-05T20:49:01.470Z,85.10
2023-03-05T20:51:36.719Z,85.30
2023-03-05T20:54:09.244Z,85.30
2023-03-05T20:56:36.243Z,85.40
2023-03-05T20:59:06.072Z,85.60
2023-03-05T21:01:34.828Z,85.60
2023-03-05T21:04:02.637Z,85.70
2023-03-05T21:06:30.615Z,86.80
2023-03-05T21:08:57.747Z,86.10
2023-03-05T21:11:24.917Z,86.30
2023-03-05T21:13:51.824Z,86.30
2023-03-05T21:16:22.535Z,86.40
2023-03-05T21:18:51.019Z,86.50
2023-03-05T21:21:17.875Z,86.70
2023-03-05T21:23:44.564Z,86.90
2023-03-05T21:26:12.578Z,87.00
2023-03-05T21:28:40.880Z,87.20
2023-03-05T21:31:10.434Z,87.30
2023-03-05T21:33:37.901Z,87.40
2023-03-05T21:36:05.146Z,87.60
2023-03-05T21:38:33.991Z,87.70
2023-03-05T21:41:01.940Z,87.70
2023-03-05T21:43:31.083Z,87.90
2023-03-05T21:46:00.453Z,88.00
2023-03-05T21:48:27.176Z,88.20
2023-03-05T21:50:55.169Z,88.30
2023-03-05T21:53:22.854Z,88.40
2023-03-05T21:56:02.552Z,88.40
2023-03-05T21:58:34.159Z,88.60
2023-03-05T22:01:01.224Z,88.80
2023-03-05T22:03:28.476Z,88.90
2023-03-05T22:05:56.115Z,89.00
2023-03-05T22:08:23.694Z,89.00
2023-03-05T22:10:50.414Z,89.10
2023-03-05T22:13:17.931Z,89.10
2023-03-05T22:15:56.217Z,89.20
2023-03-05T22:18:28.378Z,89.50
2023-03-05T22:20:56.110Z,89.60
2023-03-05T22:23:25.159Z,89.50
2023-03-05T22:25:59.868Z,89.70
2023-03-05T22:28:27.724Z,90.00
2023-03-05T22:30:54.584Z,90.00
2023-03-05T22:33:23.102Z,90.00
2023-03-05T22:35:50.425Z,90.00
2023-03-05T22:38:17.832Z,90.40
2023-03-05T22:40:46.271Z,90.10
2023-03-05T22:43:14.158Z,90.10
2023-03-05T22:45:41.079Z,90.10
2023-03-05T22:48:09.854Z,90.10
2023-03-05T22:50:41.144Z,90.10
2023-03-05T22:53:08.199Z,90.20
2023-03-05T22:55:38.617Z,90.20
2023-03-05T22:58:05.315Z,90.30
2023-03-05T23:00:33.000Z,90.30
2023-03-05T23:02:59.738Z,90.30
2023-03-05T23:05:26.426Z,90.30
2023-03-05T23:07:53.196Z,90.40
2023-03-05T23:10:25.604Z,90.50
2023-03-05T23:12:54.992Z,90.50
2023-03-05T23:15:30.963Z,90.60
2023-03-05T23:17:58.348Z,90.60
2023-03-05T23:20:28.575Z,90.60
2023-03-05T23:22:56.346Z,90.70
2023-03-05T23:25:25.744Z,90.70
2023-03-05T23:27:52.967Z,90.70
2023-03-05T23:30:30.387Z,90.70
2023-03-05T23:32:59.656Z,90.80
2023-03-05T23:35:35.393Z,90.80
2023-03-05T23:38:05.593Z,90.90
2023-03-05T23:40:47.414Z,90.90
2023-03-05T23:43:15.152Z,90.90
2023-03-05T23:45:43.875Z,90.90
2023-03-05T23:48:10.623Z,90.90
2023-03-05T23:50:40.656Z,91.00
2023-03-05T23:53:07.557Z,91.00
2023-03-05T23:55:44.690Z,91.00
2023-03-05T23:58:11.942Z,91.00
